createdAt,value
2022-12-17T00:02:14.510Z,-4.50
2022-12-17T00:05:00.435Z,-4.50
2022-12-17T00:07:46.158Z,-4.50
2022-12-17T00:10:31.871Z,-4.50
2022-12-17T00:13:17.842Z,-4.50
2022-12-17T00:16:11.205Z,-4.50
2022-12-17T00:18:57.578Z,-4.50
2022-12-17T00:21:43.624Z,-4.50
2022-12-17T00:24:29.307Z,-4.50
2022-12-17T00:27:15.120Z,-4.50
2022-12-17T00:30:01.060Z,-4.50
2022-12-17T00:32:47.211Z,-4.50
2022-12-17T00:35:33.110Z,-4.50
2022-12-17T00:38:19.960Z,-4.50
2022-12-17T00:41:11.541Z,-4.50
2022-12-17T00:43:57.465Z,-4.50
2022-12-17T00:46:43.698Z,-4.50
2022-12-17T00:49:29.991Z,-4.50
2022-12-17T00:52:15.968Z,-4.50
2022-12-17T00:55:02.015Z,-4.50
2022-12-17T00:57:47.919Z,-4.50
2022-12-17T01:00:34.416Z,-4.50
2022-12-17T01:03:30.196Z,-4.50
2022-12-17T01:06:21.766Z,-4.50
2022-12-17T01:09:07.949Z,-4.50
2022-12-17T01:11:56.501Z,-4.50
2022-12-17T01:14:44.446Z,-4.40
2022-12-17T01:17:30.992Z,-4.50
2022-12-17T01:20:17.283Z,-4.50
2022-12-17T01:23:05.168Z,-4.50
2022-12-17T01:25:51.030Z,-4.50
2022-12-17T01:28:44.245Z,-4.50
2022-12-17T01:31:34.935Z,-4.50
2022-12-17T01:34:21.636Z,-4.50
2022-12-17T01:37:07.800Z,-4.50
2022-12-17T01:39:54.002Z,-4.50
2022-12-17T01:42:40.014Z,-4.50
2022-12-17T01:45:31.307Z,-4.60
2022-12-17T01:48:29.450Z,-4.60
2022-12-17T01:51:16.796Z,-4.60
2022-12-17T01:54:08.902Z,-4.60
2022-12-17T01:56:59.799Z,-4.50
2022-12-17T02:00:23.514Z,-4.50
2022-12-17T02:03:09.843Z,-4.50
2022-12-17T02:06:26.579Z,-4.50
2022-12-17T02:09:21.004Z,-4.60
2022-12-17T02:12:38.156Z,-4.50
2022-12-17T02:15:39.213Z,-4.50
2022-12-17T02:18:36.056Z,-4.50
2022-12-17T02:21:24.151Z,-4.50
2022-12-17T02:24:28.404Z,-4.50
2022-12-17T02:27:25.124Z,-4.50
2022-12-17T02:30:19.959Z,-4.50
2022-12-17T02:33:08.267Z,-4.50
2022-12-17T02:36:03.103Z,-4.50
2022-12-17T02:38:50.922Z,-4.40
2022-12-17T02:41:48.741Z,-4.50
2022-12-17T02:44:37.915Z,-4.50
2022-12-17T02:47:27.193Z,-4.50
2022-12-17T02:50:13.959Z,-4.50
2022-12-17T02:53:05.017Z,-4.50
2022-12-17T02:55:52.474Z,-4.50
2022-12-17T02:58:38.831Z,-4.50
2022-12-17T03:01:25.810Z,-4.50
2022-12-17T03:04:12.036Z,-4.50
2022-12-17T03:06:58.280Z,-4.50
2022-12-17T03:09:44.399Z,-4.50
2022-12-17T03:12:30.176Z,-4.50
2022-12-17T03:15:15.972Z,-4.50
2022-12-17T03:18:01.784Z,-4.60
2022-12-17T03:20:47.735Z,-4.50
2022-12-17T03:23:34.049Z,-4.50
2022-12-17T03:26:22.768Z,-4.60
2022-12-17T03:29:08.965Z,-4.60
2022-12-17T03:31:55.167Z,-4.60
2022-12-17T03:34:41.290Z,-4.60
2022-12-17T03:37:27.497Z,-4.60
2022-12-17T03:40:13.283Z,-4.60
2022-12-17T03:43:02.101Z,-4.60
2022-12-17T03:45:48.166Z,-4.60
2022-12-17T03:48:34.824Z,-4.60
2022-12-17T03:51:20.913Z,-4.60
2022-12-17T03:54:07.309Z,-4.60
2022-12-17T03:56:53.245Z,-4.70
2022-12-17T03:59:49.939Z,-4.70
2022-12-17T04:02:35.841Z,-4.70
2022-12-17T04:05:21.955Z,-4.60
2022-12-17T04:08:08.175Z,-4.60
2022-12-17T04:10:54.134Z,-4.70
2022-12-17T04:13:43.059Z,-4.70
2022-12-17T04:16:29.389Z,-4.60
2022-12-17T04:19:15.128Z,-4.70
2022-12-17T04:22:01.092Z,-4.60
2022-12-17T04:24:47.272Z,-4.70
2022-12-17T04:27:32.884Z,-4.70
2022-12-17T04:30:18.737Z,-4.60
2022-12-17T04:33:04.969Z,-4.60
2022-12-17T04:35:51.080Z,-4.60
2022-12-17T04:38:37.282Z,-4.60
2022-12-17T04:41:23.129Z,-4.70
2022-12-17T04:44:09.114Z,-4.80
2022-12-17T04:46:55.425Z,-4.70
2022-12-17T04:49:41.321Z,-4.70
2022-12-17T04:52:27.210Z,-4.70
2022-12-17T04:55:13.038Z,-4.70
2022-12-17T04:57:58.836Z,-4.70
2022-12-17T05:00:44.800Z,-4.70
2022-12-17T05:03:34.302Z,-4.70
2022-12-17T05:06:21.077Z,-4.70
2022-12-17T05:09:07.548Z,-4.70
2022-12-17T05:11:53.798Z,-4.80
2022-12-17T05:14:39.841Z,-4.80
2022-12-17T05:17:25.843Z,-4.70
2022-12-17T05:20:11.695Z,-4.70
2022-12-17T05:22:57.504Z,-4.70
2022-12-17T05:25:43.468Z,-4.80
2022-12-17T05:28:29.411Z,-4.80
2022-12-17T05:31:15.787Z,-4.80
2022-12-17T05:34:01.854Z,-4.80
2022-12-17T05:36:47.720Z,-4.80
2022-12-17T05:39:33.608Z,-4.80
2022-12-17T05:42:19.295Z,-4.80
2022-12-17T05:45:05.118Z,-4.80
2022-12-17T05:47:51.381Z,-4.80
2022-12-17T05:50:37.163Z,-4.80
2022-12-17T05:53:24.252Z,-4.80
2022-12-17T05:56:11.668Z,-4.80
2022-12-17T05:58:58.350Z,-4.80
2022-12-17T06:01:44.736Z,-4.80
2022-12-17T06:04:31.127Z,-4.70
2022-12-17T06:07:17.094Z,-4.70
2022-12-17T06:10:02.995Z,-4.70
2022-12-17T06:12:48.949Z,-4.70
2022-12-17T06:15:35.836Z,-4.70
2022-12-17T06:18:22.023Z,-4.70
2022-12-17T06:21:07.831Z,-4.70
2022-12-17T06:23:53.927Z,-4.70
2022-12-17T06:26:39.940Z,-4.80
2022-12-17T06:29:28.839Z,-4.80
2022-12-17T06:32:14.630Z,-4.80
2022-12-17T06:35:00.477Z,-4.80
2022-12-17T06:37:46.622Z,-4.80
2022-12-17T06:40:32.650Z,-4.80
2022-12-17T06:43:18.512Z,-4.80
2022-12-17T06:46:04.305Z,-4.80
2022-12-17T06:49:01.096Z,-4.80
2022-12-17T06:51:47.033Z,-4.80
2022-12-17T06:54:32.840Z,-4.80
2022-12-17T06:57:18.955Z,-4.80
2022-12-17T07:00:04.777Z,-4.80
2022-12-17T07:02:51.203Z,-4.80
2022-12-17T07:05:37.144Z,-4.70
2022-12-17T07:08:23.763Z,-4.80
2022-12-17T07:11:09.541Z,-4.70
2022-12-17T07:13:56.325Z,-4.70
2022-12-17T07:16:42.252Z,-4.70
2022-12-17T07:19:28.383Z,-4.70
2022-12-17T07:22:15.111Z,-4.70
2022-12-17T07:25:01.047Z,-4.60
2022-12-17T07:27:47.076Z,-4.60
2022-12-17T07:30:33.273Z,-4.60
2022-12-17T07:33:21.958Z,-4.50
2022-12-17T07:36:08.140Z,-4.50
2022-12-17T07:38:54.185Z,-4.50
2022-12-17T07:41:40.020Z,-4.50
2022-12-17T07:44:25.852Z,-4.50
2022-12-17T07:47:12.119Z,-4.50
2022-12-17T07:49:58.011Z,-4.50
2022-12-17T07:52:43.729Z,-4.50
2022-12-17T07:55:29.681Z,-4.50
2022-12-17T07:58:21.718Z,-4.40
2022-12-17T08:01:12.139Z,-4.40
2022-12-17T08:04:02.643Z,-4.40
2022-12-17T08:06:48.330Z,-4.30
2022-12-17T08:09:34.182Z,-4.30
2022-12-17T08:12:20.360Z,-4.30
2022-12-17T08:15:06.175Z,-4.30
2022-12-17T08:17:52.188Z,-4.20
2022-12-17T08:20:38.355Z,-4.20
2022-12-17T08:23:25.150Z,-4.20
2022-12-17T08:26:11.489Z,-4.10
2022-12-17T08:28:57.562Z,-4.20
2022-12-17T08:31:44.471Z,-4.20
2022-12-17T08:34:30.647Z,-4.10
2022-12-17T08:37:16.380Z,-4.10
2022-12-17T08:40:02.448Z,-4.10
2022-12-17T08:42:48.559Z,-4.10
2022-12-17T08:45:34.512Z,-4.10
2022-12-17T08:48:27.867Z,-4.10
2022-12-17T08:51:13.698Z,-4.10
2022-12-17T08:53:59.565Z,-4.10
2022-12-17T08:56:45.759Z,-4.10
2022-12-17T08:59:31.645Z,-4.10
2022-12-17T09:02:17.727Z,-4.00
2022-12-17T09:05:04.016Z,-4.00
2022-12-17T09:07:50.005Z,-3.90
2022-12-17T09:10:35.781Z,-3.90
2022-12-17T09:13:23.233Z,-3.90
2022-12-17T09:16:16.061Z,-3.80
2022-12-17T09:19:02.486Z,-3.80
2022-12-17T09:21:50.543Z,-3.80
2022-12-17T09:24:36.784Z,-4.00
2022-12-17T09:27:39.932Z,-4.00
2022-12-17T09:30:26.645Z,-4.10
2022-12-17T09:33:12.804Z,-4.10
2022-12-17T09:35:59.363Z,-3.90
2022-12-17T09:38:45.348Z,-3.90
2022-12-17T09:41:52.042Z,-3.90
2022-12-17T09:44:52.529Z,-3.80
2022-12-17T09:48:12.202Z,-3.70
2022-12-17T09:51:18.293Z,-3.70
2022-12-17T09:54:12.570Z,-3.60
2022-12-17T09:57:01.272Z,-3.70
2022-12-17T09:59:52.506Z,-3.80
2022-12-17T10:02:50.283Z,-3.80
2022-12-17T10:05:48.218Z,-3.80
2022-12-17T10:08:39.680Z,-3.70
2022-12-17T10:11:47.792Z,-3.80
2022-12-17T10:14:42.623Z,-3.80
2022-12-17T10:17:46.569Z,-3.80
2022-12-17T10:20:49.756Z,-3.70
2022-12-17T10:23:48.067Z,-3.70
2022-12-17T10:26:47.056Z,-3.70
2022-12-17T10:29:42.547Z,-3.80
2022-12-17T10:32:39.748Z,-3.80
2022-12-17T10:35:54.516Z,-3.80
2022-12-17T10:38:47.272Z,-3.70
2022-12-17T10:41:48.267Z,-3.60
2022-12-17T10:44:50.551Z,-3.50
2022-12-17T10:47:47.128Z,-3.40
2022-12-17T10:50:41.157Z,-3.30
2022-12-17T10:53:42.502Z,-3.20
2022-12-17T10:56:42.227Z,-3.10
2022-12-17T10:59:46.608Z,-3.30
2022-12-17T11:02:46.631Z,-3.50
2022-12-17T11:05:47.784Z,-3.70
2022-12-17T11:08:42.997Z,-3.80
2022-12-17T11:11:31.692Z,-3.70
2022-12-17T11:14:20.329Z,-3.80
2022-12-17T11:17:14.172Z,-3.90
2022-12-17T11:20:13.223Z,-3.90
2022-12-17T11:23:10.516Z,-3.90
2022-12-17T11:26:23.933Z,-3.90
2022-12-17T11:29:10.069Z,-3.80
2022-12-17T11:32:01.977Z,-3.80
2022-12-17T11:34:47.912Z,-3.80
2022-12-17T11:37:39.758Z,-3.90
2022-12-17T11:40:56.111Z,-3.90
2022-12-17T11:43:50.964Z,-3.90
2022-12-17T11:46:51.313Z,-4.10
2022-12-17T11:49:47.956Z,-4.10
2022-12-17T11:53:04.319Z,-4.00
2022-12-17T11:56:36.157Z,-4.00
2022-12-17T11:59:52.676Z,-4.00
2022-12-17T12:03:26.584Z,-3.80
2022-12-17T12:06:18.209Z,-3.80
2022-12-17T12:09:29.106Z,-3.70
2022-12-17T12:12:31.185Z,-3.70
2022-12-17T12:16:10.385Z,-3.80
2022-12-17T12:19:14.137Z,-3.80
2022-12-17T12:23:00.575Z,-3.80
2022-12-17T12:26:32.819Z,-3.80
2022-12-17T12:29:39.136Z,-3.90
2022-12-17T12:32:57.393Z,-3.90
2022-12-17T12:35:47.180Z,-3.90
2022-12-17T12:38:51.729Z,-3.80
2022-12-17T12:41:48.144Z,-3.90
2022-12-17T12:45:12.400Z,-4.00
2022-12-17T12:48:39.730Z,-4.00
2022-12-17T12:51:48.621Z,-4.20
2022-12-17T12:54:49.655Z,-4.20
2022-12-17T12:57:56.668Z,-4.20
2022-12-17T13:00:57.810Z,-4.20
2022-12-17T13:03:55.318Z,-4.20
2022-12-17T13:06:40.713Z,-4.20
2022-12-17T13:09:17.108Z,-4.30
2022-12-17T13:11:46.648Z,-4.30
2022-12-17T13:14:33.386Z,-4.30
2022-12-17T13:17:09.377Z,-4.20
2022-12-17T13:19:47.410Z,-4.20
2022-12-17T13:22:23.793Z,-4.20
2022-12-17T13:24:55.514Z,-4.30
2022-12-17T13:27:35.068Z,-4.30
2022-12-17T13:30:17.782Z,-4.30
2022-12-17T13:33:23.986Z,-4.40
2022-12-17T13:36:26.228Z,-4.40
2022-12-17T13:39:21.106Z,-4.30
2022-12-17T13:41:57.136Z,-4.30
2022-12-17T13:44:39.812Z,-4.20
2022-12-17T13:47:28.540Z,-4.30
2022-12-17T13:50:32.091Z,-4.30
2022-12-17T13:52:47.158Z,-4.30
2022-12-17T13:55:25.636Z,-4.30
2022-12-17T13:57:54.441Z,-4.30
2022-12-17T14:00:30.759Z,-4.30
2022-12-17T14:02:58.410Z,-4.30
2022-12-17T14:05:33.089Z,-4.30
2022-12-17T14:08:03.054Z,-4.20
2022-12-17T14:10:30.725Z,-4.30
2022-12-17T14:13:18.191Z,-4.40
2022-12-17T14:15:53.011Z,-4.40
2022-12-17T14:18:21.952Z,-4.40
2022-12-17T14:20:55.404Z,-4.40
2022-12-17T14:23:31.920Z,-4.30
2022-12-17T14:25:59.805Z,-4.30
2022-12-17T14:28:50.308Z,-4.30
2022-12-17T14:31:27.643Z,-4.40
2022-12-17T14:34:11.630Z,-4.50
2022-12-17T14:36:44.155Z,-4.50
2022-12-17T14:39:30.411Z,-4.50
2022-12-17T14:42:29.769Z,-4.50
2022-12-17T14:45:28.203Z,-4.50
2022-12-17T14:48:01.456Z,-4.50
2022-12-17T14:50:36.070Z,-4.50
2022-12-17T14:53:26.413Z,-4.50
2022-12-17T14:56:00.307Z,-4.50
2022-12-17T14:58:28.554Z,-4.50
2022-12-17T15:01:12.994Z,-4.50
2022-12-17T15:03:48.243Z,-4.50
2022-12-17T15:06:20.653Z,-4.50
2022-12-17T15:08:50.596Z,-4.50
2022-12-17T15:11:22.695Z,-4.50
2022-12-17T15:13:54.633Z,-4.50
2022-12-17T15:16:24.506Z,-4.50
2022-12-17T15:18:52.058Z,-4.50
2022-12-17T15:21:20.202Z,-4.50
2022-12-17T15:23:48.465Z,-4.50
2022-12-17T15:26:17.480Z,-4.60
2022-12-17T15:28:46.362Z,-4.60
2022-12-17T15:31:17.724Z,-4.60
2022-12-17T15:33:46.994Z,-4.60
2022-12-17T15:36:14.477Z,-4.50
2022-12-17T15:38:41.938Z,-4.50
2022-12-17T15:41:27.939Z,-4.60
2022-12-17T15:43:55.305Z,-4.60
2022-12-17T15:46:22.932Z,-4.60
2022-12-17T15:48:50.974Z,-4.50
2022-12-17T15:51:21.233Z,-4.60
2022-12-17T15:53:49.024Z,-4.50
2022-12-17T15:56:34.994Z,-4.50
2022-12-17T15:59:02.418Z,-4.50
2022-12-17T16:01:29.919Z,-4.50
2022-12-17T16:03:58.460Z,-4.50
2022-12-17T16:06:26.351Z,-4.50
2022-12-17T16:08:53.759Z,-4.40
2022-12-17T16:11:21.162Z,-4.40
2022-12-17T16:13:54.224Z,-4.50
2022-12-17T16:16:23.084Z,-4.40
2022-12-17T16:18:50.903Z,-4.50
2022-12-17T16:21:18.650Z,-4.40
2022-12-17T16:23:46.632Z,-4.40
2022-12-17T16:26:14.134Z,-4.50
2022-12-17T16:28:44.694Z,-4.60
2022-12-17T16:31:15.563Z,-4.60
2022-12-17T16:33:44.944Z,-4.60
2022-12-17T16:36:16.458Z,-4.60
2022-12-17T16:38:49.730Z,-4.50
2022-12-17T16:41:18.425Z,-4.50
2022-12-17T16:43:47.004Z,-4.50
2022-12-17T16:46:34.462Z,-4.50
2022-12-17T16:49:28.380Z,-4.50
2022-12-17T16:51:57.716Z,-4.60
2022-12-17T16:54:29.249Z,-4.60
2022-12-17T16:56:56.848Z,-4.70
2022-12-17T16:59:24.284Z,-4.70
2022-12-17T17:01:52.908Z,-4.60
2022-12-17T17:04:23.289Z,-4.60
2022-12-17T17:06:54.997Z,-4.60
2022-12-17T17:09:23.798Z,-4.50
2022-12-17T17:11:52.256Z,-4.50
2022-12-17T17:14:20.292Z,-4.50
2022-12-17T17:16:47.728Z,-4.50
2022-12-17T17:19:15.245Z,-4.50
2022-12-17T17:21:49.117Z,-4.50
2022-12-17T17:24:21.173Z,-4.60
2022-12-17T17:26:50.378Z,-4.60
2022-12-17T17:29:18.323Z,-4.50
2022-12-17T17:32:10.524Z,-4.50
2022-12-17T17:34:33.631Z,-4.50
2022-12-17T17:37:01.000Z,-4.60
2022-12-17T17:39:32.003Z,-4.40
2022-12-17T17:42:00.308Z,-4.50
2022-12-17T17:44:27.824Z,-4.40
2022-12-17T17:46:55.342Z,-4.50
2022-12-17T17:49:22.876Z,-4.50
2022-12-17T17:54:39.718Z,-4.40
2022-12-17T17:57:07.904Z,-4.40
2022-12-17T17:59:35.448Z,-4.40
2022-12-17T18:02:03.828Z,-4.40
2022-12-17T18:04:32.244Z,-4.40
2022-12-17T18:07:24.067Z,-4.50
2022-12-17T18:09:47.075Z,-4.40
2022-12-17T18:12:32.971Z,-4.40
2022-12-17T18:15:17.850Z,-4.50
2022-12-17T18:17:50.283Z,-4.50
2022-12-17T18:20:18.410Z,-4.50
2022-12-17T18:22:46.752Z,-4.40
2022-12-17T18:25:15.959Z,-4.40
2022-12-17T18:27:43.814Z,-4.40
2022-12-17T18:30:12.039Z,-4.50
2022-12-17T18:32:39.550Z,-4.50
2022-12-17T18:35:07.837Z,-4.50
2022-12-17T18:37:35.464Z,-4.50
2022-12-17T18:40:03.843Z,-4.50
2022-12-17T18:42:50.062Z,-4.60
2022-12-17T18:45:17.587Z,-4.60
2022-12-17T18:47:45.019Z,-4.50
2022-12-17T18:50:13.430Z,-4.50
2022-12-17T18:52:41.026Z,-4.50
2022-12-17T18:55:11.717Z,-4.50
2022-12-17T18:57:39.243Z,-4.50
2022-12-17T19:00:07.668Z,-4.40
2022-12-17T19:02:35.278Z,-4.50
2022-12-17T19:05:02.743Z,-4.50
2022-12-17T19:07:30.193Z,-4.60
2022-12-17T19:09:57.604Z,-4.60
2022-12-17T19:12:25.101Z,-4.60
2022-12-17T19:14:52.479Z,-4.60
2022-12-17T19:17:19.879Z,-4.50
2022-12-17T19:19:48.276Z,-4.60
2022-12-17T19:22:15.698Z,-4.60
2022-12-17T19:24:43.113Z,-4.50
2022-12-17T19:27:10.567Z,-4.60
2022-12-17T19:29:37.986Z,-4.50
2022-12-17T19:32:05.604Z,-4.50
2022-12-17T19:34:35.269Z,-4.50
2022-12-17T19:37:02.721Z,-4.60
2022-12-17T19:39:30.191Z,-4.60
2022-12-17T19:41:57.589Z,-4.60
2022-12-17T19:44:25.332Z,-4.70
2022-12-17T19:46:52.724Z,-4.60
2022-12-17T19:49:20.148Z,-4.60
2022-12-17T19:51:47.547Z,-4.60
2022-12-17T19:54:15.625Z,-4.60
2022-12-17T19:56:45.117Z,-4.70
2022-12-17T19:59:13.785Z,-4.80
2022-12-17T20:01:48.096Z,-4.80
2022-12-17T20:04:16.834Z,-4.70
2022-12-17T20:06:45.402Z,-4.70
2022-12-17T20:09:14.580Z,-4.80
2022-12-17T20:11:42.024Z,-4.80
2022-12-17T20:14:18.041Z,-4.80
2022-12-17T20:17:06.036Z,-4.90
2022-12-17T20:19:34.859Z,-5.00
2022-12-17T20:22:05.269Z,-5.10
2022-12-17T20:24:33.179Z,-5.10
2022-12-17T20:27:01.434Z,-5.20
2022-12-17T20:29:29.532Z,-5.20
2022-12-17T20:31:57.143Z,-5.10
2022-12-17T20:34:25.633Z,-5.20
2022-12-17T20:36:54.329Z,-5.30
2022-12-17T20:39:27.240Z,-5.40
2022-12-17T20:41:56.615Z,-5.40
2022-12-17T20:44:24.136Z,-5.40
2022-12-17T20:46:51.603Z,-5.30
2022-12-17T20:49:19.224Z,-5.40
2022-12-17T20:51:46.820Z,-5.30
2022-12-17T20:54:14.238Z,-5.30
2022-12-17T20:56:41.733Z,-5.40
2022-12-17T20:59:14.767Z,-5.40
2022-12-17T21:01:42.332Z,-5.30
2022-12-17T21:04:12.049Z,-5.10
2022-12-17T21:06:46.249Z,-5.10
2022-12-17T21:09:16.168Z,-5.20
2022-12-17T21:11:43.590Z,-5.20
2022-12-17T21:14:17.287Z,-5.30
2022-12-17T21:16:46.128Z,-5.20
2022-12-17T21:19:18.147Z,-5.20
2022-12-17T21:21:45.825Z,-5.20
2022-12-17T21:24:13.271Z,-5.10
2022-12-17T21:26:43.585Z,-5.40
2022-12-17T21:29:12.160Z,-5.40
2022-12-17T21:31:51.353Z,-5.40
2022-12-17T21:34:23.075Z,-5.50
2022-12-17T21:36:51.597Z,-5.40
2022-12-17T21:39:20.467Z,-5.60
2022-12-17T21:42:09.543Z,-5.60
2022-12-17T21:44:37.467Z,-5.70
2022-12-17T21:47:05.121Z,-5.70
2022-12-17T21:49:32.578Z,-5.80
2022-12-17T21:52:01.638Z,-5.80
2022-12-17T21:54:29.165Z,-5.90
2022-12-17T21:56:56.670Z,-5.90
2022-12-17T21:59:24.104Z,-5.90
2022-12-17T22:01:52.132Z,-5.90
2022-12-17T22:04:19.710Z,-6.00
2022-12-17T22:06:49.056Z,-6.00
2022-12-17T22:09:26.833Z,-6.00
2022-12-17T22:12:29.325Z,-6.10
2022-12-17T22:14:56.677Z,-6.10
2022-12-17T22:17:24.699Z,-6.10
2022-12-17T22:19:52.186Z,-6.00
2022-12-17T22:22:19.698Z,-5.80
2022-12-17T22:24:47.103Z,-5.80
2022-12-17T22:27:14.812Z,-5.90
2022-12-17T22:30:00.954Z,-6.10
2022-12-17T22:32:46.753Z,-6.10
2022-12-17T22:36:25.824Z,-6.00
2022-12-17T22:38:04.767Z,-5.90
2022-12-17T22:44:28.437Z,-5.80
2022-12-17T22:44:49.261Z,-5.70
2022-12-17T22:46:27.092Z,-5.90
2022-12-17T22:48:56.388Z,-6.00
2022-12-17T22:51:39.659Z,-5.90
2022-12-17T22:54:13.502Z,-5.90
2022-12-17T22:57:35.180Z,-5.90
2022-12-17T22:59:31.300Z,-6.00
2022-12-17T23:01:58.769Z,-6.10
2022-12-17T23:04:26.411Z,-6.10
2022-12-17T23:06:53.827Z,-6.00
2022-12-17T23:09:21.396Z,-6.10
2022-12-17T23:11:49.616Z,-6.10
2022-12-17T23:14:18.039Z,-6.10
2022-12-17T23:16:46.073Z,-6.00
2022-12-17T23:19:13.916Z,-5.90
2022-12-17T23:21:41.813Z,-6.00
2022-12-17T23:24:09.524Z,-6.00
2022-12-17T23:26:37.539Z,-6.10
2022-12-17T23:29:10.297Z,-6.00
2022-12-17T23:31:42.564Z,-6.00
2022-12-17T23:34:10.253Z,-6.10
2022-12-17T23:36:37.856Z,-6.30
2022-12-17T23:39:05.903Z,-6.40
2022-12-17T23:41:33.447Z,-6.30
2022-12-17T23:44:01.523Z,-6.30
2022-12-17T23:46:30.912Z,-6.20
2022-12-17T23:48:58.402Z,-6.30
2022-12-17T23:51:26.875Z,-6.40
2022-12-17T23:53:54.339Z,-6.40
2022-12-17T23:56:28.063Z,-6.40
2022-12-17T23:58:59.839Z,-6.30
